Time;durP1;ratioP1;P1;durP2;ratioP2;P2;SDS_P1;SDS_P2;PMS_P1;PMS_P2;Temp;Humidity;BMP_temperature;BMP_pressure;BME280_temperature;BME280_humidity;BME280_pressure;Samples;Min_cycle;Max_cycle;Signal;HPM_P1;HPM_P2
2022/05/09 00:00:06;;;;;;;;;;;;;;;21.30;47.07;102507.34;7284935;19;154369;-66
2022/05/09 00:02:33;;;;;;;;;;;;;;;21.31;47.68;102514.63;7285494;19;153002;-64
2022/05/09 00:05:00;;;;;;;;;;;;;;;21.33;47.40;102511.53;7285078;19;153622;-63
2022/05/09 00:07:27;;;;;;;;;;;;;;;21.32;47.52;102510.69;7285148;19;152246;-63
2022/05/09 00:09:54;;;;;;;;;;;;;;;21.30;47.70;102508.16;7286037;19;152703;-64
2022/05/09 00:12:21;;;;;;;;;;;;;;;21.32;48.14;102507.88;7285253;19;154173;-63
2022/05/09 00:14:49;;;;;;;;;;;;;;;21.29;47.83;102509.28;7285736;19;152264;-63
2022/05/09 00:17:16;;;;;;;;;;;;;;;21.30;47.72;102504.53;7286425;19;153584;-63
2022/05/09 00:19:43;;;;;;;;;;;;;;;21.28;47.68;102498.31;7284666;19;154501;-63
2022/05/09 00:22:10;;;;;;;;;;;;;;;21.25;47.69;102498.88;7293430;19;151780;-63
2022/05/09 00:24:37;;;;;;;;;;;;;;;21.27;47.84;102491.84;7286399;19;153851;-64
2022/05/09 00:27:04;;;;;;;;;;;;;;;21.26;48.26;102489.31;7284461;19;152111;-65
2022/05/09 00:29:31;;;;;;;;;;;;;;;21.26;48.26;102480.88;7287040;19;152679;-65
2022/05/09 00:31:59;;;;;;;;;;;;;;;21.26;47.84;102486.50;7286357;19;152989;-63
2022/05/09 00:34:26;;;;;;;;;;;;;;;21.26;48.15;102486.50;7283430;19;151869;-64
2022/05/09 00:36:55;;;;;;;;;;;;;;;21.24;48.32;102483.13;7287463;19;152854;-62
2022/05/09 00:39:23;;;;;;;;;;;;;;;21.21;48.09;102484.50;7281226;19;154318;-63
2022/05/09 00:41:51;;;;;;;;;;;;;;;21.21;48.10;102481.69;7287239;19;152183;-63
2022/05/09 00:44:18;;;;;;;;;;;;;;;21.21;48.02;102470.44;7290583;19;153139;-63
2022/05/09 00:46:46;;;;;;;;;;;;;;;21.20;48.43;102477.22;7286763;19;151458;-63
2022/05/09 00:49:23;;;;;;;;;;;;;;;21.22;48.15;102471.28;7284138;19;152793;-63
2022/05/09 00:51:56;;;;;;;;;;;;;;;21.23;48.07;102462.59;7285084;19;154091;-64
2022/05/09 00:54:25;;;;;;;;;;;;;;;21.23;48.04;102470.19;7282615;19;152355;-63
2022/05/09 00:56:56;;;;;;;;;;;;;;;21.22;47.97;102474.09;7284384;19;153524;-63
2022/05/09 00:59:23;;;;;;;;;;;;;;;21.23;48.16;102478.63;7282979;19;154733;-63
2022/05/09 01:01:50;;;;;;;;;;;;;;;21.20;47.84;102465.13;7286152;19;151534;-63
2022/05/09 01:04:21;;;;;;;;;;;;;;;21.24;47.92;102458.69;7286148;19;154152;-63
2022/05/09 01:06:48;;;;;;;;;;;;;;;21.21;48.10;102464.81;7289737;19;154268;-63
2022/05/09 01:09:15;;;;;;;;;;;;;;;21.26;48.15;102462.03;7286796;19;152961;-64
2022/05/09 01:11:43;;;;;;;;;;;;;;;21.24;48.17;102460.63;7282656;19;154038;-64
2022/05/09 01:14:15;;;;;;;;;;;;;;;21.28;47.81;102456.16;7284335;19;152101;-65
2022/05/09 01:16:42;;;;;;;;;;;;;;;21.27;47.83;102460.06;7285844;19;152371;-63
2022/05/09 01:19:18;;;;;;;;;;;;;;;21.25;48.22;102457.56;7282037;19;153673;-62
2022/05/09 01:21:45;;;;;;;;;;;;;;;21.31;48.04;102452.78;7285974;19;151647;-62
2022/05/09 01:24:15;;;;;;;;;;;;;;;21.29;48.32;102458.69;7284443;19;153849;-62
2022/05/09 01:26:42;;;;;;;;;;;;;;;21.28;48.03;102454.19;7281447;19;153933;-63
2022/05/09 01:29:19;;;;;;;;;;;;;;;21.28;48.10;102450.53;7290311;19;151663;-63
2022/05/09 01:31:47;;;;;;;;;;;;;;;21.28;48.35;102459.81;7283969;19;154176;-63
2022/05/09 01:34:15;;;;;;;;;;;;;;;21.29;48.30;102457.84;7284899;19;151914;-63
2022/05/09 01:36:44;;;;;;;;;;;;;;;21.27;48.34;102460.91;7285264;19;153255;-63
2022/05/09 01:39:11;;;;;;;;;;;;;;;21.24;48.25;102458.69;7282238;19;154987;-63
2022/05/09 01:41:43;;;;;;;;;;;;;;;21.29;48.41;102457.84;7285411;19;151628;-63
2022/05/09 01:44:11;;;;;;;;;;;;;;;21.29;48.14;102460.66;7281656;19;153611;-63
2022/05/09 01:49:29;;;;;;;;;;;;;;;21.31;48.57;102461.22;7281745;19;154592;-62
2022/05/09 01:49:30;;;;;;;;;;;;;;;21.30;48.71;102457.53;7289957;19;151832;-62
2022/05/09 01:51:58;;;;;;;;;;;;;;;21.30;48.86;102448.28;7281380;19;153913;-63
2022/05/09 01:54:26;;;;;;;;;;;;;;;21.32;48.74;102454.47;7280051;19;151810;-63
2022/05/09 01:56:53;;;;;;;;;;;;;;;21.32;48.74;102440.41;7285677;19;153089;-63
2022/05/09 01:59:20;;;;;;;;;;;;;;;21.31;48.98;102444.34;7280675;19;154146;-62
2022/05/09 02:01:49;;;;;;;;;;;;;;;21.31;49.15;102441.53;7284122;19;152271;-63
2022/05/09 02:04:16;;;;;;;;;;;;;;;21.28;49.27;102442.94;7284479;19;153451;-62
2022/05/09 02:06:43;;;;;;;;;;;;;;;21.32;49.02;102436.75;7282577;19;153749;-63
2022/05/09 02:09:11;;;;;;;;;;;;;;;21.29;48.95;102438.16;7282040;19;151918;-62
2022/05/09 02:11:38;;;;;;;;;;;;;;;21.28;49.08;102433.66;7290954;19;153012;-62
2022/05/09 02:14:05;;;;;;;;;;;;;;;21.29;49.17;102441.81;7282353;19;152128;-63
2022/05/09 02:16:32;;;;;;;;;;;;;;;21.22;49.06;102424.34;7282459;19;153132;-62
2022/05/09 02:18:59;;;;;;;;;;;;;;;21.20;49.36;102426.63;7280423;19;153954;-63
2022/05/09 02:21:27;;;;;;;;;;;;;;;21.21;49.46;102424.66;7282228;19;151812;-63
2022/05/09 02:23:54;;;;;;;;;;;;;;;21.18;49.47;102423.22;7282918;19;153873;-63
2022/05/09 02:26:20;;;;;;;;;;;;;;;21.18;49.42;102420.41;7280339;19;154258;-63
2022/05/09 02:28:47;;;;;;;;;;;;;;;21.18;49.24;102431.66;7283532;19;152012;-63
2022/05/09 02:31:14;;;;;;;;;;;;;;;21.15;49.43;102431.38;7283787;19;151951;-63
2022/05/09 02:33:42;;;;;;;;;;;;;;;21.20;49.58;102431.41;7289953;19;153323;-62
2022/05/09 02:36:09;;;;;;;;;;;;;;;21.21;49.17;102425.47;7282970;19;153376;-62
2022/05/09 02:38:36;;;;;;;;;;;;;;;21.18;49.52;102416.75;7281455;19;154329;-63
2022/05/09 02:41:03;;;;;;;;;;;;;;;21.15;49.02;102422.94;7278691;19;152033;-63
2022/05/09 02:43:30;;;;;;;;;;;;;;;21.19;49.07;102416.50;7283343;19;153381;-63
2022/05/09 02:46:03;;;;;;;;;;;;;;;21.15;49.11;102418.16;7280245;19;153760;-63
2022/05/09 02:48:31;;;;;;;;;;;;;;;21.13;49.11;102405.50;7281331;19;151522;-63
2022/05/09 02:50:58;;;;;;;;;;;;;;;21.15;49.36;102406.06;7283786;19;152568;-63
2022/05/09 02:53:25;;;;;;;;;;;;;;;21.13;49.54;102409.16;7280288;19;155266;-62
2022/05/09 02:55:52;;;;;;;;;;;;;;;21.13;48.86;102394.25;7291094;19;151500;-62
2022/05/09 02:58:19;;;;;;;;;;;;;;;21.11;48.92;102388.91;7280267;19;153795;-62
2022/05/09 03:00:45;;;;;;;;;;;;;;;21.09;48.94;102388.31;7278383;19;152219;-62
2022/05/09 03:05:49;;;;;;;;;;;;;;;21.05;49.26;102375.94;7281580;19;153971;-62
2022/05/09 03:08:18;;;;;;;;;;;;;;;21.07;49.13;102370.06;7281974;19;151516;-62
2022/05/09 03:10:45;;;;;;;;;;;;;;;21.05;49.27;102361.03;7281603;19;153669;-62
2022/05/09 03:13:12;;;;;;;;;;;;;;;21.06;49.34;102359.94;7281478;19;153465;-62
2022/05/09 03:15:42;;;;;;;;;;;;;;;21.04;48.91;102368.63;7281034;19;152086;-61
2022/05/09 03:18:09;;;;;;;;;;;;;;;21.08;49.01;102366.94;7287833;19;152543;-62
2022/05/09 03:20:36;;;;;;;;;;;;;;;21.07;48.87;102373.72;7278985;19;152051;-64
2022/05/09 03:23:04;;;;;;;;;;;;;;;21.11;49.32;102371.19;7281131;19;152867;-64
2022/05/09 03:25:32;;;;;;;;;;;;;;;21.11;48.99;102376.81;7281152;19;154422;-65
2022/05/09 03:27:59;;;;;;;;;;;;;;;21.11;48.90;102374.84;7280981;19;154101;-64
2022/05/09 03:30:26;;;;;;;;;;;;;;;21.13;49.04;102377.38;7281679;19;151958;-62
2022/05/09 03:32:53;;;;;;;;;;;;;;;21.16;48.96;102376.84;7277534;19;154089;-63
2022/05/09 03:35:20;;;;;;;;;;;;;;;21.14;49.25;102373.47;7281863;19;151825;-62
2022/05/09 03:37:46;;;;;;;;;;;;;;;21.13;48.90;102363.34;7285672;19;153160;-63
2022/05/09 03:40:14;;;;;;;;;;;;;;;21.10;49.14;102364.72;7293832;19;154265;-62
2022/05/09 03:42:41;;;;;;;;;;;;;;;21.13;48.86;102355.75;7286432;19;152556;-63
2022/05/09 03:45:08;;;;;;;;;;;;;;;21.11;49.23;102351.53;7286134;19;153431;-65
2022/05/09 03:47:34;;;;;;;;;;;;;;;21.12;49.25;102350.41;7286704;19;152151;-63
2022/05/09 03:50:01;;;;;;;;;;;;;;;21.11;49.08;102357.13;7287583;19;153112;-64
2022/05/09 03:52:28;;;;;;;;;;;;;;;21.13;48.84;102355.75;7284424;19;154636;-62
2022/05/09 03:54:57;;;;;;;;;;;;;;;21.11;49.22;102355.19;7283438;19;152537;-63
2022/05/09 03:57:25;;;;;;;;;;;;;;;21.13;49.07;102357.72;7286038;19;152219;-63
2022/05/09 03:59:52;;;;;;;;;;;;;;;21.13;49.03;102350.13;7293102;19;154216;-63
2022/05/09 04:02:19;;;;;;;;;;;;;;;21.13;48.76;102352.09;7287846;19;152052;-63
2022/05/09 04:04:46;;;;;;;;;;;;;;;21.13;48.69;102368.97;7285290;19;155144;-63
2022/05/09 04:07:13;;;;;;;;;;;;;;;21.11;48.97;102368.38;7286563;19;152777;-63
2022/05/09 04:09:40;;;;;;;;;;;;;;;21.10;48.96;102372.31;7285931;19;153504;-63
2022/05/09 04:12:07;;;;;;;;;;;;;;;21.09;48.74;102367.78;7283099;19;154266;-62
2022/05/09 04:17:11;;;;;;;;;;;;;;;21.10;48.57;102359.09;7286481;19;152935;-62
2022/05/09 04:19:38;;;;;;;;;;;;;;;21.10;48.86;102361.06;7284455;19;153462;-62
2022/05/09 04:22:06;;;;;;;;;;;;;;;21.06;49.11;102355.16;7293040;19;151747;-62
2022/05/09 04:24:33;;;;;;;;;;;;;;;21.08;48.58;102357.66;7284661;19;153255;-63
2022/05/09 04:27:00;;;;;;;;;;;;;;;21.07;48.90;102353.19;7284515;19;152019;-62
2022/05/09 04:29:27;;;;;;;;;;;;;;;21.08;48.79;102357.66;7284963;19;153957;-63
2022/05/09 04:31:54;;;;;;;;;;;;;;;21.09;48.70;102354.59;7286095;19;154073;-63
2022/05/09 04:34:21;;;;;;;;;;;;;;;21.04;49.12;102351.78;7284288;19;151656;-65
2022/05/09 04:36:48;;;;;;;;;;;;;;;21.06;49.25;102351.50;7287039;19;153050;-63
2022/05/09 04:39:16;;;;;;;;;;;;;;;21.00;48.90;102339.41;7285038;19;153155;-63
2022/05/09 04:41:43;;;;;;;;;;;;;;;20.96;49.05;102343.03;7284189;19;151860;-63
2022/05/09 04:44:10;;;;;;;;;;;;;;;20.98;49.40;102347.28;7292260;19;153436;-64
2022/05/09 04:46:37;;;;;;;;;;;;;;;20.99;49.17;102353.72;7286779;19;151807;-63
2022/05/09 04:49:04;;;;;;;;;;;;;;;21.00;49.15;102344.16;7285507;19;153657;-64
2022/05/09 04:51:31;;;;;;;;;;;;;;;21.03;49.45;102343.63;7283022;19;153458;-64
2022/05/09 04:53:57;;;;;;;;;;;;;;;21.03;49.37;102341.66;7285567;19;151858;-63
2022/05/09 04:56:24;;;;;;;;;;;;;;;20.97;49.22;102339.97;7286798;19;152788;-63
2022/05/09 04:58:51;;;;;;;;;;;;;;;20.93;49.48;102333.22;7281861;19;154176;-62
2022/05/09 05:01:18;;;;;;;;;;;;;;;20.89;49.64;102331.25;7284808;19;151848;-63
2022/05/09 05:03:45;;;;;;;;;;;;;;;20.92;49.49;102334.34;7283324;19;152924;-62
2022/05/09 05:06:12;;;;;;;;;;;;;;;20.88;49.39;102330.41;7292465;19;154380;-63
2022/05/09 05:08:39;;;;;;;;;;;;;;;20.88;49.48;102329.53;7284188;19;152879;-63
2022/05/09 05:11:06;;;;;;;;;;;;;;;20.84;49.67;102327.31;7284270;19;154272;-62
2022/05/09 05:13:33;;;;;;;;;;;;;;;20.85;49.36;102330.94;7283956;19;152054;-63
2022/05/09 05:16:00;;;;;;;;;;;;;;;20.89;49.66;102329.28;7285600;19;153213;-62
2022/05/09 05:18:27;;;;;;;;;;;;;;;20.85;49.79;102325.31;7282155;19;153401;-64
2022/05/09 05:20:55;;;;;;;;;;;;;;;20.82;49.36;102325.88;7284428;19;151612;-62
2022/05/09 05:23:22;;;;;;;;;;;;;;;20.84;49.38;102321.69;7284129;19;152695;-62
2022/05/09 05:25:50;;;;;;;;;;;;;;;20.83;49.21;102322.78;7282681;19;153738;-62
2022/05/09 05:28:17;;;;;;;;;;;;;;;20.85;49.55;102322.50;7292675;19;151625;-65
2022/05/09 05:30:44;;;;;;;;;;;;;;;20.86;49.42;102322.22;7284382;19;153497;-64
2022/05/09 05:33:11;;;;;;;;;;;;;;;20.86;49.34;102321.38;7283214;19;151722;-63
2022/05/09 05:35:38;;;;;;;;;;;;;;;20.90;49.96;102322.50;7285971;19;155376;-65
2022/05/09 05:38:05;;;;;;;;;;;;;;;20.94;50.53;102322.81;7284259;19;153391;-64
2022/05/09 05:40:32;;;;;;;;;;;;;;;20.98;50.10;102323.94;7284754;19;151540;-63
2022/05/09 05:42:59;;;;;;;;;;;;;;;21.04;50.48;102314.38;7282564;19;152935;-65
2022/05/09 05:45:26;;;;;;;;;;;;;;;21.08;50.50;102307.09;7282033;19;153773;-63
2022/05/09 05:47:53;;;;;;;;;;;;;;;21.15;50.69;102310.53;7284178;19;151545;-64
2022/05/09 05:50:22;;;;;;;;;;;;;;;21.21;50.59;102317.84;7289769;19;152721;-64
2022/05/09 05:52:49;;;;;;;;;;;;;;;21.29;50.36;102326.56;7282316;19;152023;-65
2022/05/09 05:55:19;;;;;;;;;;;;;;;21.37;50.36;102322.34;7280620;19;153660;-65
2022/05/09 05:57:46;;;;;;;;;;;;;;;21.47;50.37;102322.34;7284288;19;153547;-65
2022/05/09 06:00:18;;;;;;;;;;;;;;;21.54;49.87;102325.69;7282616;19;152070;-64
2022/05/09 06:02:46;;;;;;;;;;;;;;;21.63;49.79;102329.63;7283988;19;152599;-66
2022/05/09 06:05:14;;;;;;;;;;;;;;;21.71;49.08;102325.44;7283797;19;153837;-65
2022/05/09 06:07:41;;;;;;;;;;;;;;;21.77;48.98;102323.44;7282761;19;151840;-67
2022/05/09 06:10:10;;;;;;;;;;;;;;;21.84;48.72;102326.81;7288935;19;153527;-66
2022/05/09 06:12:36;;;;;;;;;;;;;;;21.93;48.35;102319.50;7282684;19;151823;-67
2022/05/09 06:17:41;;;;;;;;;;;;;;;22.07;48.23;102323.41;7283124;19;153657;-65
2022/05/09 06:20:09;;;;;;;;;;;;;;;22.14;47.82;102315.50;7283268;19;151782;-64
2022/05/09 06:22:38;;;;;;;;;;;;;;;22.23;47.57;102318.56;7281292;19;152858;-64
2022/05/09 06:25:06;;;;;;;;;;;;;;;22.28;47.88;102322.22;7283493;19;153265;-63
2022/05/09 06:27:33;;;;;;;;;;;;;;;22.35;47.15;102319.13;7281260;19;152003;-64
2022/05/09 06:30:01;;;;;;;;;;;;;;;22.40;47.35;102313.44;7284664;19;152813;-65
2022/05/09 06:32:27;;;;;;;;;;;;;;;22.24;41.25;102309.00;7289088;19;154127;-67
2022/05/09 06:34:54;;;;;;;;;;;;;;;22.05;38.71;102314.41;7284626;19;152691;-65
2022/05/09 06:37:21;;;;;;;;;;;;;;;22.06;41.38;102307.66;7278382;19;153895;-71
2022/05/09 06:39:48;;;;;;;;;;;;;;;22.16;40.81;102297.22;7281909;19;151864;-69
2022/05/09 06:42:15;;;;;;;;;;;;;;;22.21;41.22;102290.72;7281342;19;153352;-69
2022/05/09 06:44:42;;;;;;;;;;;;;;;22.25;41.45;102286.19;7279368;19;152558;-70
2022/05/09 06:47:10;;;;;;;;;;;;;;;22.28;41.56;102288.44;7283501;19;152555;-66
2022/05/09 06:49:37;;;;;;;;;;;;;;;22.30;42.00;102286.19;7280595;19;153631;-69
2022/05/09 06:52:04;;;;;;;;;;;;;;;22.32;41.96;102280.25;7282155;19;154116;-69
2022/05/09 06:54:31;;;;;;;;;;;;;;;22.32;41.70;102278.28;7286498;19;152021;-68
2022/05/09 06:56:58;;;;;;;;;;;;;;;22.31;41.75;102270.94;7282595;19;153399;-68
2022/05/09 06:59:25;;;;;;;;;;;;;;;22.32;41.42;102269.81;7282554;19;151965;-66
2022/05/09 07:01:52;;;;;;;;;;;;;;;22.32;41.34;102272.63;7281121;19;153810;-70
2022/05/09 07:04:19;;;;;;;;;;;;;;;22.33;41.46;102265.03;7282035;19;153724;-67
2022/05/09 07:06:45;;;;;;;;;;;;;;;22.32;41.33;102274.59;7280292;19;152144;-70
2022/05/09 07:09:13;;;;;;;;;;;;;;;22.30;41.69;102274.91;7282537;19;153710;-70
2022/05/09 07:11:40;;;;;;;;;;;;;;;22.30;41.54;102269.28;7284898;19;154088;-70
2022/05/09 07:14:07;;;;;;;;;;;;;;;22.29;41.98;102266.75;7287152;19;152718;-69
2022/05/09 07:16:34;;;;;;;;;;;;;;;22.30;41.43;102263.66;7294215;19;155190;-68
2022/05/09 07:19:01;;;;;;;;;;;;;;;22.32;41.52;102264.19;7289264;19;152124;-69
2022/05/09 07:21:28;;;;;;;;;;;;;;;22.35;41.69;102263.59;7286707;19;154847;-66
2022/05/09 07:23:55;;;;;;;;;;;;;;;22.36;42.09;102262.47;7286513;19;153761;-70
2022/05/09 07:26:22;;;;;;;;;;;;;;;22.33;42.34;102260.25;7287060;19;152525;-63
2022/05/09 07:28:48;;;;;;;;;;;;;;;22.33;41.99;102257.44;7285660;19;152731;-67
2022/05/09 07:31:15;;;;;;;;;;;;;;;22.29;41.77;102250.69;7285950;19;154525;-66
2022/05/09 07:33:43;;;;;;;;;;;;;;;22.27;42.20;102250.13;7284479;19;152249;-68
2022/05/09 07:36:10;;;;;;;;;;;;;;;22.25;42.15;102241.16;7287068;19;153536;-66
2022/05/09 07:38:37;;;;;;;;;;;;;;;22.22;42.19;102243.69;7293068;19;154035;-65
2022/05/09 07:41:06;;;;;;;;;;;;;;;22.17;42.02;102236.09;7287810;19;153013;-68
2022/05/09 07:43:33;;;;;;;;;;;;;;;22.17;41.56;102238.91;7285889;19;153649;-69
2022/05/09 07:46:00;;;;;;;;;;;;;;;22.15;41.67;102246.81;7287904;19;152247;-65
2022/05/09 07:48:28;;;;;;;;;;;;;;;22.12;41.65;102250.22;7288473;19;152449;-64
2022/05/09 07:50:56;;;;;;;;;;;;;;;22.13;41.54;102240.63;7287007;19;154039;-65
2022/05/09 07:53:25;;;;;;;;;;;;;;;22.10;41.75;102244.03;7286726;19;152104;-66
2022/05/09 07:55:52;;;;;;;;;;;;;;;22.06;41.65;102242.91;7286332;19;153393;-66
2022/05/09 07:58:19;;;;;;;;;;;;;;;22.05;41.61;102239.25;7285347;19;153288;-65
2022/05/09 08:00:46;;;;;;;;;;;;;;;22.05;41.69;102246.84;7294359;19;152109;-65
2022/05/09 08:03:17;;;;;;;;;;;;;;;22.01;41.52;102245.75;7282063;19;154585;-67
2022/05/09 08:05:44;;;;;;;;;;;;;;;22.00;41.57;102244.91;7288891;19;151740;-67
2022/05/09 08:08:12;;;;;;;;;;;;;;;21.99;41.41;102240.41;7286919;19;153477;-66
2022/05/09 08:10:40;;;;;;;;;;;;;;;21.97;41.70;102239.84;7285012;19;154224;-66
2022/05/09 08:13:07;;;;;;;;;;;;;;;21.94;41.40;102242.41;7288043;19;152035;-67
2022/05/09 08:15:35;;;;;;;;;;;;;;;21.94;41.62;102239.59;7288158;19;152857;-64
2022/05/09 08:18:02;;;;;;;;;;;;;;;21.92;41.68;102245.47;7284323;19;154193;-66
2022/05/09 08:20:32;;;;;;;;;;;;;;;21.89;41.68;102236.75;7294002;19;151761;-67
2022/05/09 08:23:00;;;;;;;;;;;;;;;21.86;41.80;102252.22;7281638;19;154622;-67
2022/05/09 08:25:27;;;;;;;;;;;;;;;21.86;41.35;102252.22;7287132;19;152202;-66
2022/05/09 08:27:54;;;;;;;;;;;;;;;21.84;41.48;102248.88;7287334;19;153823;-66
2022/05/09 08:30:22;;;;;;;;;;;;;;;21.84;41.55;102242.41;7286317;19;154357;-66
2022/05/09 08:32:52;;;;;;;;;;;;;;;21.81;41.48;102245.75;7287112;19;152250;-66
2022/05/09 08:35:19;;;;;;;;;;;;;;;21.80;41.69;102241.28;7287512;19;153227;-68
2022/05/09 08:37:50;;;;;;;;;;;;;;;21.78;41.83;102227.50;7283954;19;153706;-69
2022/05/09 08:40:23;;;;;;;;;;;;;;;21.77;41.37;102233.41;7285233;19;152073;-68
2022/05/09 08:42:57;;;;;;;;;;;;;;;21.75;41.81;102230.88;7290098;19;152685;-67
2022/05/09 08:45:28;;;;;;;;;;;;;;;21.76;41.85;102217.66;7286691;19;151893;-68
2022/05/09 08:48:05;;;;;;;;;;;;;;;21.74;41.83;102204.72;7284871;19;152704;-66
2022/05/09 08:50:37;;;;;;;;;;;;;;;21.72;41.83;102201.34;7283375;19;154519;-65
2022/05/09 08:53:07;;;;;;;;;;;;;;;21.73;41.88;102193.75;7284630;19;151765;-67
2022/05/09 08:55:38;;;;;;;;;;;;;;;21.72;42.02;102184.47;7284155;19;154174;-68
2022/05/09 08:58:14;;;;;;;;;;;;;;;21.72;41.47;102184.47;7282564;19;153600;-66
2022/05/09 09:00:41;;;;;;;;;;;;;;;21.72;41.70;102184.47;7286923;19;151862;-65
2022/05/09 09:03:15;;;;;;;;;;;;;;;21.71;41.65;102179.16;7282963;19;153154;-67
2022/05/09 09:05:44;;;;;;;;;;;;;;;21.72;41.55;102181.66;7290808;19;152979;-68
2022/05/09 09:08:16;;;;;;;;;;;;;;;21.71;41.74;102176.34;7284053;19;153076;-68
2022/05/09 09:10:43;;;;;;;;;;;;;;;21.71;41.76;102171.53;7283085;19;153871;-64
2022/05/09 09:13:13;;;;;;;;;;;;;;;21.70;41.75;102164.22;7286670;19;151873;-63
2022/05/09 09:15:45;;;;;;;;;;;;;;;21.70;41.53;102163.38;7285977;19;152661;-65
2022/05/09 09:18:22;;;;;;;;;;;;;;;21.70;41.46;102163.38;7282698;19;154096;-62
2022/05/09 09:20:59;;;;;;;;;;;;;;;21.72;41.88;102161.13;7286566;19;151527;-67
2022/05/09 09:23:36;;;;;;;;;;;;;;;21.73;42.03;102151.56;7281153;19;152827;-66
2022/05/09 09:26:28;;;;;;;;;;;;;;;21.73;41.91;102152.41;7285955;19;153808;-68
2022/05/09 09:29:06;;;;;;;;;;;;;;;21.73;41.62;102152.41;7292973;19;152047;-68
2022/05/09 09:31:35;;;;;;;;;;;;;;;21.74;41.36;102159.72;7283016;19;153570;-68
2022/05/09 09:34:17;;;;;;;;;;;;;;;21.74;41.22;102156.91;7281612;19;151716;-68
2022/05/09 09:36:48;;;;;;;;;;;;;;;21.78;41.14;102156.31;7284383;19;153529;-70
2022/05/09 09:39:17;;;;;;;;;;;;;;;21.75;41.37;102160.56;7282433;19;154518;-69
2022/05/09 09:41:44;;;;;;;;;;;;;;;21.76;41.52;102165.03;7285958;19;151783;-66
2022/05/09 09:44:12;;;;;;;;;;;;;;;21.80;41.33;102166.16;7285673;19;152614;-66
2022/05/09 09:46:49;;;;;;;;;;;;;;;21.83;41.35;102161.94;7283450;19;154141;-71
2022/05/09 09:49:17;;;;;;;;;;;;;;;21.85;41.57;102163.31;7284010;19;151913;-65
2022/05/09 09:51:46;;;;;;;;;;;;;;;21.86;41.62;102155.72;7291639;19;152363;-66
2022/05/09 09:54:16;;;;;;;;;;;;;;;21.87;41.71;102157.41;7282094;19;151795;-67
2022/05/09 09:56:43;;;;;;;;;;;;;;;21.89;41.29;102161.63;7285362;19;152746;-66
2022/05/09 09:59:11;;;;;;;;;;;;;;;21.91;41.23;102169.75;7282363;19;153494;-65
2022/05/09 10:01:38;;;;;;;;;;;;;;;21.91;41.37;102164.13;7284599;19;152067;-65
2022/05/09 10:04:16;;;;;;;;;;;;;;;21.91;41.29;102170.59;7279986;19;152949;-70
2022/05/09 10:06:53;;;;;;;;;;;;;;;21.93;41.64;102157.13;7283045;19;153357;-68
2022/05/09 10:09:21;;;;;;;;;;;;;;;21.93;41.82;102150.66;7283884;19;152175;-68
2022/05/09 10:11:48;;;;;;;;;;;;;;;21.93;41.70;102151.50;7283449;19;153078;-66
2022/05/09 10:14:30;;;;;;;;;;;;;;;21.93;41.87;102147.84;7290590;19;151941;-69
2022/05/09 10:17:07;;;;;;;;;;;;;;;21.94;41.83;102143.91;7283142;19;152489;-64
2022/05/09 10:19:37;;;;;;;;;;;;;;;21.97;42.04;102140.50;7283238;19;154587;-65
2022/05/09 10:24:52;;;;;;;;;;;;;;;21.96;42.14;102139.66;7283877;19;153327;-69
2022/05/09 10:27:23;;;;;;;;;;;;;;;21.98;41.88;102133.75;7281619;19;153503;-64
2022/05/09 10:29:51;;;;;;;;;;;;;;;21.96;41.76;102136.00;7284241;19;151952;-67
2022/05/09 10:32:22;;;;;;;;;;;;;;;21.96;42.20;102125.59;7282413;19;153235;-68
2022/05/09 10:34:55;;;;;;;;;;;;;;;21.97;42.03;102120.81;7288713;19;154046;-69
2022/05/09 10:37:27;;;;;;;;;;;;;;;21.97;42.19;102123.63;7282031;19;153891;-67
2022/05/09 10:40:01;;;;;;;;;;;;;;;21.93;42.07;102112.13;7280691;19;153498;-67
2022/05/09 10:42:34;;;;;;;;;;;;;;;21.94;42.07;102101.69;7282980;19;151557;-67
2022/05/09 10:45:06;;;;;;;;;;;;;;;21.95;42.40;102109.84;7283435;19;153331;-67
2022/05/09 10:47:43;;;;;;;;;;;;;;;21.97;42.02;102112.38;7281753;19;153556;-66
2022/05/09 10:50:13;;;;;;;;;;;;;;;21.96;42.07;102108.72;7281821;19;152245;-68
2022/05/09 10:52:50;;;;;;;;;;;;;;;21.96;42.49;102105.06;7284180;19;152719;-69
2022/05/09 10:55:24;;;;;;;;;;;;;;;21.95;42.38;102095.75;7277285;19;154204;-68
2022/05/09 10:58:05;;;;;;;;;;;;;;;21.94;42.59;102101.69;7285632;19;152270;-69
2022/05/09 11:00:34;;;;;;;;;;;;;;;21.91;42.40;102097.44;7280920;19;153521;-64
2022/05/09 11:03:10;;;;;;;;;;;;;;;21.92;42.43;102087.88;7281403;19;151737;-70
2022/05/09 11:05:46;;;;;;;;;;;;;;;21.91;42.57;102086.19;7283576;19;153867;-67
2022/05/09 11:08:14;;;;;;;;;;;;;;;21.89;42.40;102076.38;7282110;19;153863;-64
2022/05/09 11:10:45;;;;;;;;;;;;;;;21.90;42.62;102083.66;7283308;19;152295;-67
2022/05/09 11:13:22;;;;;;;;;;;;;;;21.91;42.55;102072.13;7282821;19;152539;-66
2022/05/09 11:16:00;;;;;;;;;;;;;;;21.90;42.37;102072.41;7280752;19;154167;-69
2022/05/09 11:18:29;;;;;;;;;;;;;;;21.94;42.30;102070.75;7282853;19;151869;-67
2022/05/09 11:21:06;;;;;;;;;;;;;;;21.93;42.63;102063.44;7289559;19;152560;-67
2022/05/09 11:23:43;;;;;;;;;;;;;;;21.95;42.63;102047.09;7278347;19;151805;-66
2022/05/09 11:26:13;;;;;;;;;;;;;;;21.94;42.75;102051.06;7281287;19;152516;-66
2022/05/09 11:28:50;;;;;;;;;;;;;;;21.93;42.65;102058.66;7280742;19;153963;-69
2022/05/09 11:31:26;;;;;;;;;;;;;;;21.93;42.49;102049.38;7282859;19;151974;-63
2022/05/09 11:33:58;;;;;;;;;;;;;;;21.89;42.70;102054.69;7279446;19;152506;-65
2022/05/09 11:36:28;;;;;;;;;;;;;;;21.91;43.06;102052.41;7278860;19;153991;-70
2022/05/09 11:39:10;;;;;;;;;;;;;;;21.92;43.05;102050.44;7280541;19;152586;-66
2022/05/09 11:41:37;;;;;;;;;;;;;;;21.88;43.18;102050.19;7282453;19;152967;-66
2022/05/09 11:44:11;;;;;;;;;;;;;;;21.89;43.13;102032.19;7286208;19;154065;-68
2022/05/09 11:46:41;;;;;;;;;;;;;;;21.91;42.93;102041.16;7282401;19;152481;-66
2022/05/09 11:49:18;;;;;;;;;;;;;;;21.91;43.08;102031.88;7280622;19;154105;-69
2022/05/09 11:51:47;;;;;;;;;;;;;;;21.95;43.10;102027.38;7282370;19;151991;-64
2022/05/09 11:54:18;;;;;;;;;;;;;;;21.96;43.12;102020.63;7280355;19;153477;-68
2022/05/09 11:56:47;;;;;;;;;;;;;;;21.94;43.17;102022.91;7278375;19;154128;-65
2022/05/09 11:59:20;;;;;;;;;;;;;;;21.93;42.88;102018.41;7285493;19;151725;-67
2022/05/09 12:01:56;;;;;;;;;;;;;;;21.92;43.30;102022.31;7280936;19;153025;-68
2022/05/09 12:04:29;;;;;;;;;;;;;;;21.89;42.95;102026.56;7280048;19;154242;-66
2022/05/09 12:06:57;;;;;;;;;;;;;;;21.89;42.98;102022.91;7295318;19;151908;-69
2022/05/09 12:09:34;;;;;;;;;;;;;;;21.89;43.24;102028.53;7285855;19;152660;-69
2022/05/09 12:12:00;;;;;;;;;;;;;;;21.88;43.46;102019.25;7285857;19;152016;-68
2022/05/09 12:14:37;;;;;;;;;;;;;;;21.90;43.26;102018.94;7287844;19;154059;-67
2022/05/09 12:17:16;;;;;;;;;;;;;;;21.88;43.30;102007.16;7284403;19;153397;-67
2022/05/09 12:19:42;;;;;;;;;;;;;;;21.89;43.11;102011.66;7285477;19;152636;-69
2022/05/09 12:22:19;;;;;;;;;;;;;;;21.86;43.57;102006.59;7285322;19;152759;-65
2022/05/09 12:24:46;;;;;;;;;;;;;;;21.83;43.38;102007.19;7283792;19;153463;-66
2022/05/09 12:27:22;;;;;;;;;;;;;;;21.81;43.27;102010.28;7292520;19;152163;-67
2022/05/09 12:29:49;;;;;;;;;;;;;;;21.81;43.51;102004.66;7285734;19;154139;-67
2022/05/09 12:32:17;;;;;;;;;;;;;;;21.78;43.55;102007.22;7285055;19;152091;-70
2022/05/09 12:34:45;;;;;;;;;;;;;;;21.77;43.73;101995.13;7283869;19;152658;-66
2022/05/09 12:37:14;;;;;;;;;;;;;;;21.76;43.86;101993.44;7283367;19;154336;-65
2022/05/09 12:39:50;;;;;;;;;;;;;;;21.75;43.64;101991.78;7283762;19;151930;-69
2022/05/09 12:42:27;;;;;;;;;;;;;;;21.74;43.88;101979.69;7285598;19;153423;-67
2022/05/09 12:44:56;;;;;;;;;;;;;;;21.75;43.88;101983.34;7280937;19;154175;-68
2022/05/09 12:47:26;;;;;;;;;;;;;;;21.72;43.68;101981.06;7286042;19;152451;-66